sensor_id;sensor_type;location;lat;lon;timestamp;temperature;humidity
20512;DHT22;10414;52.074;5.126;2022-07-22T00:00:00;18.40;99.90
20512;DHT22;10414;52.074;5.126;2022-07-22T00:02:26;18.50;99.90
20512;DHT22;10414;52.074;5.126;2022-07-22T00:05:12;18.50;99.90
20512;DHT22;10414;52.074;5.126;2022-07-22T00:07:39;18.30;99.90
20512;DHT22;10414;52.074;5.126;2022-07-22T00:10:09;18.40;99.90
20512;DHT22;10414;52.074;5.126;2022-07-22T00:12:37;18.40;99.90
20512;DHT22;10414;52.074;5.126;2022-07-22T00:15:05;18.50;99.90
20512;DHT22;10414;52.074;5.126;2022-07-22T00:17:32;18.60;99.90
20512;DHT22;10414;52.074;5.126;2022-07-22T00:19:59;18.40;99.90
20512;DHT22;10414;52.074;5.126;2022-07-22T00:22:26;18.30;99.90
20512;DHT22;10414;52.074;5.126;2022-07-22T00:24:53;18.50;99.90
20512;DHT22;10414;52.074;5.126;2022-07-22T00:27:22;18.40;99.90
20512;DHT22;10414;52.074;5.126;2022-07-22T00:29:49;18.20;99.90
20512;DHT22;10414;52.074;5.126;2022-07-22T00:32:16;18.20;99.90
20512;DHT22;10414;52.074;5.126;2022-07-22T00:34:43;18.40;99.90
20512;DHT22;10414;52.074;5.126;2022-07-22T00:37:10;18.40;99.90
20512;DHT22;10414;52.074;5.126;2022-07-22T00:39:38;18.50;99.90
20512;DHT22;10414;52.074;5.126;2022-07-22T00:42:05;18.40;99.90
20512;DHT22;10414;52.074;5.126;2022-07-22T00:44:34;18.20;99.90
20512;DHT22;10414;52.074;5.126;2022-07-22T00:47:02;18.30;99.90
20512;DHT22;10414;52.074;5.126;2022-07-22T00:49:29;18.40;99.90
20512;DHT22;10414;52.074;5.126;2022-07-22T00:51:56;18.30;99.90
20512;DHT22;10414;52.074;5.126;2022-07-22T00:54:23;18.40;99.90
20512;DHT22;10414;52.074;5.126;2022-07-22T00:56:50;18.20;99.90
20512;DHT22;10414;52.074;5.126;2022-07-22T00:59:19;18.10;99.90
20512;DHT22;10414;52.074;5.126;2022-07-22T01:01:47;18.20;99.90
20512;DHT22;10414;52.074;5.126;2022-07-22T01:04:14;18.10;99.90
20512;DHT22;10414;52.074;5.126;2022-07-22T01:06:41;18.30;99.90
20512;DHT22;10414;52.074;5.126;2022-07-22T01:09:10;18.30;99.90
20512;DHT22;10414;52.074;5.126;2022-07-22T01:11:37;18.30;99.90
20512;DHT22;10414;52.074;5.126;2022-07-22T01:14:04;18.30;99.90
20512;DHT22;10414;52.074;5.126;2022-07-22T01:16:31;18.30;99.90
20512;DHT22;10414;52.074;5.126;2022-07-22T01:18:59;18.20;99.90
20512;DHT22;10414;52.074;5.126;2022-07-22T01:21:27;18.30;99.90
20512;DHT22;10414;52.074;5.126;2022-07-22T01:23:54;18.20;99.90
20512;DHT22;10414;52.074;5.126;2022-07-22T01:26:21;18.40;99.90
20512;DHT22;10414;52.074;5.126;2022-07-22T01:28:49;18.50;99.90
20512;DHT22;10414;52.074;5.126;2022-07-22T01:31:16;18.30;99.90
20512;DHT22;10414;52.074;5.126;2022-07-22T01:33:43;18.50;99.90
20512;DHT22;10414;52.074;5.126;2022-07-22T01:36:11;18.50;99.90
20512;DHT22;10414;52.074;5.126;2022-07-22T01:38:40;18.40;99.90
20512;DHT22;10414;52.074;5.126;2022-07-22T01:41:07;18.40;99.90
20512;DHT22;10414;52.074;5.126;2022-07-22T01:43:34;18.40;99.90
20512;DHT22;10414;52.074;5.126;2022-07-22T01:46:02;18.60;99.90
20512;DHT22;10414;52.074;5.126;2022-07-22T01:48:29;18.40;99.90
20512;DHT22;10414;52.074;5.126;2022-07-22T01:50:56;18.70;99.90
20512;DHT22;10414;52.074;5.126;2022-07-22T01:53:23;18.40;99.90
20512;DHT22;10414;52.074;5.126;2022-07-22T01:55:51;18.30;99.90
20512;DHT22;10414;52.074;5.126;2022-07-22T01:58:18;18.40;99.90
20512;DHT22;10414;52.074;5.126;2022-07-22T02:00:46;18.60;99.90
20512;DHT22;10414;52.074;5.126;2022-07-22T02:03:13;18.50;99.90
20512;DHT22;10414;52.074;5.126;2022-07-22T02:05:39;18.60;99.90
20512;DHT22;10414;52.074;5.126;2022-07-22T02:08:09;18.60;99.90
20512;DHT22;10414;52.074;5.126;2022-07-22T02:10:38;18.40;99.90
20512;DHT22;10414;52.074;5.126;2022-07-22T02:13:07;18.30;99.90
20512;DHT22;10414;52.074;5.126;2022-07-22T02:15:34;18.30;99.90
20512;DHT22;10414;52.074;5.126;2022-07-22T02:18:09;18.20;99.90
20512;DHT22;10414;52.074;5.126;2022-07-22T02:20:36;18.60;99.90
20512;DHT22;10414;52.074;5.126;2022-07-22T02:23:04;18.70;99.90
20512;DHT22;10414;52.074;5.126;2022-07-22T02:25:30;18.30;99.90
20512;DHT22;10414;52.074;5.126;2022-07-22T02:27:57;18.10;99.90
20512;DHT22;10414;52.074;5.126;2022-07-22T02:30:26;18.10;99.90
20512;DHT22;10414;52.074;5.126;2022-07-22T02:32:53;18.40;99.90
20512;DHT22;10414;52.074;5.126;2022-07-22T02:35:20;18.50;99.90
20512;DHT22;10414;52.074;5.126;2022-07-22T02:37:47;18.60;99.90
20512;DHT22;10414;52.074;5.126;2022-07-22T02:40:14;18.60;99.90
20512;DHT22;10414;52.074;5.126;2022-07-22T02:42:40;18.60;99.90
20512;DHT22;10414;52.074;5.126;2022-07-22T02:45:08;18.60;99.90
20512;DHT22;10414;52.074;5.126;2022-07-22T02:47:45;18.60;99.90
20512;DHT22;10414;52.074;5.126;2022-07-22T02:50:12;18.60;99.90
20512;DHT22;10414;52.074;5.126;2022-07-22T02:52:39;18.70;99.90
20512;DHT22;10414;52.074;5.126;2022-07-22T02:55:07;18.90;99.90
20512;DHT22;10414;52.074;5.126;2022-07-22T02:57:34;18.60;99.90
20512;DHT22;10414;52.074;5.126;2022-07-22T03:00:03;18.50;99.90
20512;DHT22;10414;52.074;5.126;2022-07-22T03:02:30;18.50;99.90
20512;DHT22;10414;52.074;5.126;2022-07-22T03:04:58;18.40;99.90
20512;DHT22;10414;52.074;5.126;2022-07-22T03:07:25;18.50;99.90
20512;DHT22;10414;52.074;5.126;2022-07-22T03:09:53;18.40;99.90
20512;DHT22;10414;52.074;5.126;2022-07-22T03:12:20;18.50;99.90
20512;DHT22;10414;52.074;5.126;2022-07-22T03:14:46;18.30;99.90
20512;DHT22;10414;52.074;5.126;2022-07-22T03:17:13;18.20;99.90
20512;DHT22;10414;52.074;5.126;2022-07-22T03:19:41;18.30;99.90
20512;DHT22;10414;52.074;5.126;2022-07-22T03:22:09;18.30;99.90
20512;DHT22;10414;52.074;5.126;2022-07-22T03:24:36;18.30;99.90
20512;DHT22;10414;52.074;5.126;2022-07-22T03:27:03;18.50;99.90
20512;DHT22;10414;52.074;5.126;2022-07-22T03:29:30;18.40;99.90
20512;DHT22;10414;52.074;5.126;2022-07-22T03:31:57;18.00;99.90
20512;DHT22;10414;52.074;5.126;2022-07-22T03:34:24;18.20;99.90
20512;DHT22;10414;52.074;5.126;2022-07-22T03:36:51;18.20;99.90
20512;DHT22;10414;52.074;5.126;2022-07-22T03:39:19;18.10;99.90
20512;DHT22;10414;52.074;5.126;2022-07-22T03:41:48;18.20;99.90
20512;DHT22;10414;52.074;5.126;2022-07-22T03:44:15;18.10;99.90
20512;DHT22;10414;52.074;5.126;2022-07-22T03:46:42;18.00;99.90
20512;DHT22;10414;52.074;5.126;2022-07-22T03:49:09;18.20;99.90
20512;DHT22;10414;52.074;5.126;2022-07-22T03:51:35;18.20;99.90
20512;DHT22;10414;52.074;5.126;2022-07-22T03:54:03;18.10;99.90
20512;DHT22;10414;52.074;5.126;2022-07-22T03:56:33;18.10;99.90
20512;DHT22;10414;52.074;5.126;2022-07-22T03:59:00;18.00;99.90
20512;DHT22;10414;52.074;5.126;2022-07-22T04:01:27;18.00;99.90
20512;DHT22;10414;52.074;5.126;2022-07-22T04:03:54;18.00;99.90
20512;DHT22;10414;52.074;5.126;2022-07-22T04:06:21;18.00;99.90
20512;DHT22;10414;52.074;5.126;2022-07-22T04:08:48;18.20;99.90
20512;DHT22;10414;52.074;5.126;2022-07-22T04:11:15;18.30;99.90
20512;DHT22;10414;52.074;5.126;2022-07-22T04:13:43;18.30;99.90
20512;DHT22;10414;52.074;5.126;2022-07-22T04:16:10;18.20;99.90
20512;DHT22;10414;52.074;5.126;2022-07-22T04:18:37;18.20;99.90
20512;DHT22;10414;52.074;5.126;2022-07-22T04:21:04;18.10;99.90
20512;DHT22;10414;52.074;5.126;2022-07-22T04:23:31;18.20;99.90
20512;DHT22;10414;52.074;5.126;2022-07-22T04:25:57;18.40;99.90
20512;DHT22;10414;52.074;5.126;2022-07-22T04:28:24;18.40;99.90
20512;DHT22;10414;52.074;5.126;2022-07-22T04:30:53;18.50;99.90
20512;DHT22;10414;52.074;5.126;2022-07-22T04:33:20;18.70;99.90
20512;DHT22;10414;52.074;5.126;2022-07-22T04:35:47;18.90;99.90
20512;DHT22;10414;52.074;5.126;2022-07-22T04:38:16;19.10;99.90
20512;DHT22;10414;52.074;5.126;2022-07-22T04:40:43;19.00;99.90
20512;DHT22;10414;52.074;5.126;2022-07-22T04:43:10;18.70;99.90
20512;DHT22;10414;52.074;5.126;2022-07-22T04:45:36;18.90;99.90
20512;DHT22;10414;52.074;5.126;2022-07-22T04:48:05;19.00;99.90
20512;DHT22;10414;52.074;5.126;2022-07-22T04:50:32;18.80;99.90
20512;DHT22;10414;52.074;5.126;2022-07-22T04:52:59;19.00;99.90
20512;DHT22;10414;52.074;5.126;2022-07-22T04:55:25;19.00;99.90
20512;DHT22;10414;52.074;5.126;2022-07-22T04:57:52;19.00;99.90
20512;DHT22;10414;52.074;5.126;2022-07-22T05:00:20;19.10;99.90
20512;DHT22;10414;52.074;5.126;2022-07-22T05:02:49;19.30;99.90
20512;DHT22;10414;52.074;5.126;2022-07-22T05:05:18;19.20;99.90
20512;DHT22;10414;52.074;5.126;2022-07-22T05:07:45;19.30;99.90
20512;DHT22;10414;52.074;5.126;2022-07-22T05:10:12;18.80;99.90
20512;DHT22;10414;52.074;5.126;2022-07-22T05:12:39;18.80;99.90
20512;DHT22;10414;52.074;5.126;2022-07-22T05:15:07;18.90;99.90
20512;DHT22;10414;52.074;5.126;2022-07-22T05:17:34;18.80;99.90
20512;DHT22;10414;52.074;5.126;2022-07-22T05:20:02;18.80;99.90
20512;DHT22;10414;52.074;5.126;2022-07-22T05:22:31;19.00;99.90
20512;DHT22;10414;52.074;5.126;2022-07-22T05:24:58;18.90;99.90
20512;DHT22;10414;52.074;5.126;2022-07-22T05:27:25;19.00;99.90
20512;DHT22;10414;52.074;5.126;2022-07-22T05:29:52;19.30;99.90
20512;DHT22;10414;52.074;5.126;2022-07-22T05:32:19;19.40;99.90
20512;DHT22;10414;52.074;5.126;2022-07-22T05:34:46;19.10;99.90
20512;DHT22;10414;52.074;5.126;2022-07-22T05:37:13;19.00;99.90
20512;DHT22;10414;52.074;5.126;2022-07-22T05:39:42;19.50;99.90
20512;DHT22;10414;52.074;5.126;2022-07-22T05:42:09;19.70;99.90
20512;DHT22;10414;52.074;5.126;2022-07-22T05:44:36;19.80;99.90
20512;DHT22;10414;52.074;5.126;2022-07-22T05:47:03;19.70;99.90
20512;DHT22;10414;52.074;5.126;2022-07-22T05:49:30;19.60;99.90
20512;DHT22;10414;52.074;5.126;2022-07-22T05:51:57;19.80;99.90
20512;DHT22;10414;52.074;5.126;2022-07-22T05:54:25;19.70;99.90
20512;DHT22;10414;52.074;5.126;2022-07-22T05:56:54;19.80;99.90
20512;DHT22;10414;52.074;5.126;2022-07-22T05:59:21;20.00;99.90
20512;DHT22;10414;52.074;5.126;2022-07-22T06:01:48;20.20;99.40
20512;DHT22;10414;52.074;5.126;2022-07-22T06:04:15;20.50;99.20
20512;DHT22;10414;52.074;5.126;2022-07-22T06:06:42;20.50;98.70
20512;DHT22;10414;52.074;5.126;2022-07-22T06:09:09;20.50;99.90
20512;DHT22;10414;52.074;5.126;2022-07-22T06:11:36;20.80;98.80
20512;DHT22;10414;52.074;5.126;2022-07-22T06:14:04;21.20;97.90
20512;DHT22;10414;52.074;5.126;2022-07-22T06:16:31;21.50;97.50
20512;DHT22;10414;52.074;5.126;2022-07-22T06:18:59;21.60;97.20
20512;DHT22;10414;52.074;5.126;2022-07-22T06:21:27;22.30;96.40
20512;DHT22;10414;52.074;5.126;2022-07-22T06:23:56;22.50;95.50
20512;DHT22;10414;52.074;5.126;2022-07-22T06:26:23;22.50;94.70
20512;DHT22;10414;52.074;5.126;2022-07-22T06:28:50;22.50;95.00
20512;DHT22;10414;52.074;5.126;2022-07-22T06:31:18;22.60;95.50
20512;DHT22;10414;52.074;5.126;2022-07-22T06:33:45;23.00;95.10
20512;DHT22;10414;52.074;5.126;2022-07-22T06:36:12;23.50;94.40
20512;DHT22;10414;52.074;5.126;2022-07-22T06:38:39;24.10;93.70
20512;DHT22;10414;52.074;5.126;2022-07-22T06:41:06;24.40;91.40
20512;DHT22;10414;52.074;5.126;2022-07-22T06:43:33;24.20;90.80
20512;DHT22;10414;52.074;5.126;2022-07-22T06:46:00;24.40;90.40
20512;DHT22;10414;52.074;5.126;2022-07-22T06:48:28;24.70;90.80
20512;DHT22;10414;52.074;5.126;2022-07-22T06:50:56;26.30;87.20
20512;DHT22;10414;52.074;5.126;2022-07-22T06:53:23;27.80;82.00
20512;DHT22;10414;52.074;5.126;2022-07-22T06:55:50;27.60;81.20
20512;DHT22;10414;52.074;5.126;2022-07-22T06:58:17;26.70;80.30
20512;DHT22;10414;52.074;5.126;2022-07-22T07:00:44;26.70;83.20
20512;DHT22;10414;52.074;5.126;2022-07-22T07:03:11;26.80;83.20
20512;DHT22;10414;52.074;5.126;2022-07-22T07:05:39;26.60;82.90
20512;DHT22;10414;52.074;5.126;2022-07-22T07:08:06;26.40;84.90
20512;DHT22;10414;52.074;5.126;2022-07-22T07:10:33;26.30;85.30
20512;DHT22;10414;52.074;5.126;2022-07-22T07:13:00;25.60;86.90
20512;DHT22;10414;52.074;5.126;2022-07-22T07:15:27;24.90;89.50
20512;DHT22;10414;52.074;5.126;2022-07-22T07:17:55;24.60;89.40
20512;DHT22;10414;52.074;5.126;2022-07-22T07:20:23;25.00;90.10
20512;DHT22;10414;52.074;5.126;2022-07-22T07:22:52;25.20;89.00
20512;DHT22;10414;52.074;5.126;2022-07-22T07:25:19;25.90;89.80
20512;DHT22;10414;52.074;5.126;2022-07-22T07:27:46;25.70;88.90
20512;DHT22;10414;52.074;5.126;2022-07-22T07:30:13;26.00;89.00
20512;DHT22;10414;52.074;5.126;2022-07-22T07:32:40;26.50;86.20
20512;DHT22;10414;52.074;5.126;2022-07-22T07:35:08;26.50;86.70
20512;DHT22;10414;52.074;5.126;2022-07-22T07:37:34;27.00;84.40
20512;DHT22;10414;52.074;5.126;2022-07-22T07:40:03;26.70;85.10
20512;DHT22;10414;52.074;5.126;2022-07-22T07:42:31;25.50;88.30
20512;DHT22;10414;52.074;5.126;2022-07-22T07:44:58;25.90;88.40
20512;DHT22;10414;52.074;5.126;2022-07-22T07:47:24;25.60;86.70
20512;DHT22;10414;52.074;5.126;2022-07-22T07:49:52;24.70;89.90
20512;DHT22;10414;52.074;5.126;2022-07-22T07:52:19;24.30;90.50
20512;DHT22;10414;52.074;5.126;2022-07-22T07:54:46;23.70;91.10
20512;DHT22;10414;52.074;5.126;2022-07-22T07:57:15;23.10;92.00
20512;DHT22;10414;52.074;5.126;2022-07-22T07:59:42;22.60;92.90
20512;DHT22;10414;52.074;5.126;2022-07-22T08:02:09;22.40;93.60
20512;DHT22;10414;52.074;5.126;2022-07-22T08:04:36;22.40;93.80
20512;DHT22;10414;52.074;5.126;2022-07-22T08:07:03;22.20;94.00
20512;DHT22;10414;52.074;5.126;2022-07-22T08:09:30;22.50;93.40
20512;DHT22;10414;52.074;5.126;2022-07-22T08:11:57;22.80;93.50
20512;DHT22;10414;52.074;5.126;2022-07-22T08:14:26;22.60;92.90
20512;DHT22;10414;52.074;5.126;2022-07-22T08:16:52;23.00;92.90
20512;DHT22;10414;52.074;5.126;2022-07-22T08:19:20;23.10;92.30
20512;DHT22;10414;52.074;5.126;2022-07-22T08:21:46;22.70;92.60
20512;DHT22;10414;52.074;5.126;2022-07-22T08:24:13;23.40;92.00
20512;DHT22;10414;52.074;5.126;2022-07-22T08:26:40;23.60;91.30
20512;DHT22;10414;52.074;5.126;2022-07-22T08:29:07;23.60;91.30
20512;DHT22;10414;52.074;5.126;2022-07-22T08:31:36;23.70;90.80
20512;DHT22;10414;52.074;5.126;2022-07-22T08:34:04;23.00;90.70
20512;DHT22;10414;52.074;5.126;2022-07-22T08:36:31;23.60;91.10
20512;DHT22;10414;52.074;5.126;2022-07-22T08:38:58;24.10;90.80
20512;DHT22;10414;52.074;5.126;2022-07-22T08:41:25;25.50;88.00
20512;DHT22;10414;52.074;5.126;2022-07-22T08:43:52;25.60;86.20
20512;DHT22;10414;52.074;5.126;2022-07-22T08:46:19;25.20;86.10
20512;DHT22;10414;52.074;5.126;2022-07-22T08:48:48;25.30;86.50
20512;DHT22;10414;52.074;5.126;2022-07-22T08:51:20;25.10;86.60
20512;DHT22;10414;52.074;5.126;2022-07-22T08:53:51;24.90;87.70
20512;DHT22;10414;52.074;5.126;2022-07-22T08:56:18;24.90;86.10
20512;DHT22;10414;52.074;5.126;2022-07-22T08:58:45;24.70;86.90
20512;DHT22;10414;52.074;5.126;2022-07-22T09:01:13;24.80;87.60
20512;DHT22;10414;52.074;5.126;2022-07-22T09:03:45;25.40;86.40
20512;DHT22;10414;52.074;5.126;2022-07-22T09:06:15;24.80;86.90
20512;DHT22;10414;52.074;5.126;2022-07-22T09:08:55;24.60;87.10
20512;DHT22;10414;52.074;5.126;2022-07-22T09:11:25;24.70;86.90
20512;DHT22;10414;52.074;5.126;2022-07-22T09:13:53;24.40;87.50
20512;DHT22;10414;52.074;5.126;2022-07-22T09:16:41;24.50;88.20
20512;DHT22;10414;52.074;5.126;2022-07-22T09:19:08;24.50;88.10
20512;DHT22;10414;52.074;5.126;2022-07-22T09:21:38;24.00;89.40
20512;DHT22;10414;52.074;5.126;2022-07-22T09:24:06;24.00;89.00
20512;DHT22;10414;52.074;5.126;2022-07-22T09:26:35;24.20;89.00
20512;DHT22;10414;52.074;5.126;2022-07-22T09:29:03;24.60;86.70
20512;DHT22;10414;52.074;5.126;2022-07-22T09:31:32;24.80;86.00
20512;DHT22;10414;52.074;5.126;2022-07-22T09:33:59;24.90;86.40
20512;DHT22;10414;52.074;5.126;2022-07-22T09:36:27;24.60;85.40
20512;DHT22;10414;52.074;5.126;2022-07-22T09:38:55;25.10;84.80
20512;DHT22;10414;52.074;5.126;2022-07-22T09:41:22;25.60;85.40
20512;DHT22;10414;52.074;5.126;2022-07-22T09:43:49;25.70;83.60
20512;DHT22;10414;52.074;5.126;2022-07-22T09:46:16;26.20;84.00
20512;DHT22;10414;52.074;5.126;2022-07-22T09:48:58;25.20;83.70
20512;DHT22;10414;52.074;5.126;2022-07-22T09:51:26;24.70;84.10
20512;DHT22;10414;52.074;5.126;2022-07-22T09:53:54;24.90;82.90
20512;DHT22;10414;52.074;5.126;2022-07-22T09:56:23;26.50;81.90
20512;DHT22;10414;52.074;5.126;2022-07-22T09:58:51;27.30;77.80
20512;DHT22;10414;52.074;5.126;2022-07-22T10:01:18;27.50;76.70
20512;DHT22;10414;52.074;5.126;2022-07-22T10:03:46;27.60;78.90
20512;DHT22;10414;52.074;5.126;2022-07-22T10:06:15;28.50;74.90
20512;DHT22;10414;52.074;5.126;2022-07-22T10:08:42;29.00;73.90
20512;DHT22;10414;52.074;5.126;2022-07-22T10:11:11;29.10;74.80
20512;DHT22;10414;52.074;5.126;2022-07-22T10:13:38;29.00;74.40
20512;DHT22;10414;52.074;5.126;2022-07-22T10:16:07;27.60;75.50
20512;DHT22;10414;52.074;5.126;2022-07-22T10:18:34;27.10;78.00
20512;DHT22;10414;52.074;5.126;2022-07-22T10:21:03;26.50;79.20
20512;DHT22;10414;52.074;5.126;2022-07-22T10:23:30;26.20;79.90
20512;DHT22;10414;52.074;5.126;2022-07-22T10:25:58;25.70;79.90
20512;DHT22;10414;52.074;5.126;2022-07-22T10:28:28;24.80;80.60
20512;DHT22;10414;52.074;5.126;2022-07-22T10:31:17;24.90;82.80
20512;DHT22;10414;52.074;5.126;2022-07-22T10:33:45;24.60;82.90
20512;DHT22;10414;52.074;5.126;2022-07-22T10:36:13;24.60;82.70
20512;DHT22;10414;52.074;5.126;2022-07-22T10:39:02;24.40;84.80
20512;DHT22;10414;52.074;5.126;2022-07-22T10:41:33;24.70;84.70
20512;DHT22;10414;52.074;5.126;2022-07-22T10:44:02;25.20;82.10
20512;DHT22;10414;52.074;5.126;2022-07-22T10:46:47;25.00;81.70
20512;DHT22;10414;52.074;5.126;2022-07-22T10:49:15;25.80;79.80
20512;DHT22;10414;52.074;5.126;2022-07-22T10:52:10;26.30;79.10
20512;DHT22;10414;52.074;5.126;2022-07-22T10:57:42;26.30;80.60
20512;DHT22;10414;52.074;5.126;2022-07-22T11:00:11;27.40;76.80
20512;DHT22;10414;52.074;5.126;2022-07-22T11:02:38;28.10;76.60
20512;DHT22;10414;52.074;5.126;2022-07-22T11:05:06;27.10;76.30
20512;DHT22;10414;52.074;5.126;2022-07-22T11:07:34;26.80;78.30
20512;DHT22;10414;52.074;5.126;2022-07-22T11:10:11;26.60;77.70
20512;DHT22;10414;52.074;5.126;2022-07-22T11:12:39;27.50;76.90
20512;DHT22;10414;52.074;5.126;2022-07-22T11:15:09;27.30;75.90
20512;DHT22;10414;52.074;5.126;2022-07-22T11:17:37;27.80;75.40
20512;DHT22;10414;52.074;5.126;2022-07-22T11:20:06;27.90;75.00
20512;DHT22;10414;52.074;5.126;2022-07-22T11:22:33;28.70;74.60
20512;DHT22;10414;52.074;5.126;2022-07-22T11:25:03;29.00;73.10
20512;DHT22;10414;52.074;5.126;2022-07-22T11:27:30;27.90;73.60
20512;DHT22;10414;52.074;5.126;2022-07-22T11:29:58;27.30;75.20
20512;DHT22;10414;52.074;5.126;2022-07-22T11:32:27;26.40;77.50
20512;DHT22;10414;52.074;5.126;2022-07-22T11:34:58;26.30;77.10
20512;DHT22;10414;52.074;5.126;2022-07-22T11:37:26;26.40;77.20
20512;DHT22;10414;52.074;5.126;2022-07-22T11:40:00;27.30;76.80
20512;DHT22;10414;52.074;5.126;2022-07-22T11:42:27;28.80;74.30
20512;DHT22;10414;52.074;5.126;2022-07-22T11:44:54;29.30;72.50
20512;DHT22;10414;52.074;5.126;2022-07-22T11:47:21;30.00;70.40
20512;DHT22;10414;52.074;5.126;2022-07-22T11:49:50;29.10;71.70
20512;DHT22;10414;52.074;5.126;2022-07-22T11:52:17;29.40;70.10
20512;DHT22;10414;52.074;5.126;2022-07-22T11:54:44;29.50;71.50
20512;DHT22;10414;52.074;5.126;2022-07-22T11:57:13;29.60;71.90
20512;DHT22;10414;52.074;5.126;2022-07-22T11:59:41;29.00;71.00
20512;DHT22;10414;52.074;5.126;2022-07-22T12:02:09;28.30;73.30
20512;DHT22;10414;52.074;5.126;2022-07-22T12:04:39;28.30;73.30
20512;DHT22;10414;52.074;5.126;2022-07-22T12:07:10;27.40;74.10
20512;DHT22;10414;52.074;5.126;2022-07-22T12:09:38;27.50;75.10
20512;DHT22;10414;52.074;5.126;2022-07-22T12:12:07;27.60;76.00
20512;DHT22;10414;52.074;5.126;2022-07-22T12:14:34;27.70;73.90
20512;DHT22;10414;52.074;5.126;2022-07-22T12:17:03;27.70;74.10
20512;DHT22;10414;52.074;5.126;2022-07-22T12:19:33;26.20;75.10
20512;DHT22;10414;52.074;5.126;2022-07-22T12:22:03;25.60;77.50
20512;DHT22;10414;52.074;5.126;2022-07-22T12:24:33;25.40;78.00
20512;DHT22;10414;52.074;5.126;2022-07-22T12:27:01;24.90;79.30
20512;DHT22;10414;52.074;5.126;2022-07-22T12:29:30;24.60;80.50
20512;DHT22;10414;52.074;5.126;2022-07-22T12:32:00;25.10;78.70
20512;DHT22;10414;52.074;5.126;2022-07-22T12:34:46;25.40;77.70
20512;DHT22;10414;52.074;5.126;2022-07-22T12:37:19;25.10;77.80
20512;DHT22;10414;52.074;5.126;2022-07-22T12:39:57;25.40;77.90
20512;DHT22;10414;52.074;5.126;2022-07-22T12:42:25;25.70;77.90
20512;DHT22;10414;52.074;5.126;2022-07-22T12:45:01;26.00;76.00
20512;DHT22;10414;52.074;5.126;2022-07-22T12:47:48;26.30;77.50
20512;DHT22;10414;52.074;5.126;2022-07-22T12:50:25;26.30;76.10
20512;DHT22;10414;52.074;5.126;2022-07-22T12:52:54;26.60;76.40
20512;DHT22;10414;52.074;5.126;2022-07-22T12:55:23;26.40;76.50
20512;DHT22;10414;52.074;5.126;2022-07-22T12:57:50;26.50;76.90
20512;DHT22;10414;52.074;5.126;2022-07-22T13:00:19;26.20;76.90
20512;DHT22;10414;52.074;5.126;2022-07-22T13:02:46;25.80;77.60
20512;DHT22;10414;52.074;5.126;2022-07-22T13:05:13;25.90;76.80
20512;DHT22;10414;52.074;5.126;2022-07-22T13:07:41;26.30;76.90
20512;DHT22;10414;52.074;5.126;2022-07-22T13:10:09;26.40;75.90
20512;DHT22;10414;52.074;5.126;2022-07-22T13:12:38;26.20;74.30
20512;DHT22;10414;52.074;5.126;2022-07-22T13:15:05;25.90;75.30
20512;DHT22;10414;52.074;5.126;2022-07-22T13:17:34;26.10;76.20
20512;DHT22;10414;52.074;5.126;2022-07-22T13:20:01;26.30;75.10
20512;DHT22;10414;52.074;5.126;2022-07-22T13:22:28;26.30;74.50
20512;DHT22;10414;52.074;5.126;2022-07-22T13:24:54;26.20;74.30
20512;DHT22;10414;52.074;5.126;2022-07-22T13:27:22;26.00;76.10
20512;DHT22;10414;52.074;5.126;2022-07-22T13:29:50;25.70;77.50
20512;DHT22;10414;52.074;5.126;2022-07-22T13:32:17;25.60;76.30
20512;DHT22;10414;52.074;5.126;2022-07-22T13:34:44;25.70;77.00
20512;DHT22;10414;52.074;5.126;2022-07-22T13:37:11;26.00;76.40
20512;DHT22;10414;52.074;5.126;2022-07-22T13:39:38;25.20;76.50
20512;DHT22;10414;52.074;5.126;2022-07-22T13:42:06;25.40;78.30
20512;DHT22;10414;52.074;5.126;2022-07-22T13:44:33;26.10;77.10
20512;DHT22;10414;52.074;5.126;2022-07-22T13:47:03;26.70;76.40
20512;DHT22;10414;52.074;5.126;2022-07-22T13:49:30;26.10;76.00
20512;DHT22;10414;52.074;5.126;2022-07-22T13:51:56;25.90;77.50
20512;DHT22;10414;52.074;5.126;2022-07-22T13:54:23;25.80;76.10
20512;DHT22;10414;52.074;5.126;2022-07-22T13:56:51;25.70;77.40
20512;DHT22;10414;52.074;5.126;2022-07-22T13:59:17;26.30;76.40
20512;DHT22;10414;52.074;5.126;2022-07-22T14:01:44;25.70;77.30
20512;DHT22;10414;52.074;5.126;2022-07-22T14:04:13;25.60;76.40
20512;DHT22;10414;52.074;5.126;2022-07-22T14:06:40;25.50;75.60
20512;DHT22;10414;52.074;5.126;2022-07-22T14:09:07;25.80;76.80
20512;DHT22;10414;52.074;5.126;2022-07-22T14:11:34;26.10;75.80
20512;DHT22;10414;52.074;5.126;2022-07-22T14:14:01;26.30;76.00
20512;DHT22;10414;52.074;5.126;2022-07-22T14:16:28;26.10;75.10
20512;DHT22;10414;52.074;5.126;2022-07-22T14:19:03;26.30;74.50
20512;DHT22;10414;52.074;5.126;2022-07-22T14:21:33;26.10;75.90
20512;DHT22;10414;52.074;5.126;2022-07-22T14:24:00;26.00;76.90
20512;DHT22;10414;52.074;5.126;2022-07-22T14:26:27;26.60;76.00
20512;DHT22;10414;52.074;5.126;2022-07-22T14:28:55;26.20;75.20
20512;DHT22;10414;52.074;5.126;2022-07-22T14:31:22;25.40;77.00
20512;DHT22;10414;52.074;5.126;2022-07-22T14:33:49;25.70;75.90
20512;DHT22;10414;52.074;5.126;2022-07-22T14:36:16;25.40;76.90
20512;DHT22;10414;52.074;5.126;2022-07-22T14:38:45;25.90;75.90
20512;DHT22;10414;52.074;5.126;2022-07-22T14:41:12;25.60;75.10
20512;DHT22;10414;52.074;5.126;2022-07-22T14:43:39;25.10;76.30
20512;DHT22;10414;52.074;5.126;2022-07-22T14:46:06;24.30;78.20
20512;DHT22;10414;52.074;5.126;2022-07-22T14:48:35;24.00;80.80
20512;DHT22;10414;52.074;5.126;2022-07-22T14:51:03;24.00;79.60
20512;DHT22;10414;52.074;5.126;2022-07-22T14:53:30;24.30;80.60
20512;DHT22;10414;52.074;5.126;2022-07-22T14:55:58;24.30;79.10
20512;DHT22;10414;52.074;5.126;2022-07-22T14:58:25;24.50;79.30
20512;DHT22;10414;52.074;5.126;2022-07-22T15:00:52;25.30;79.80
20512;DHT22;10414;52.074;5.126;2022-07-22T15:03:19;25.60;78.00
20512;DHT22;10414;52.074;5.126;2022-07-22T15:05:46;25.60;78.20
20512;DHT22;10414;52.074;5.126;2022-07-22T15:08:13;25.40;77.90
20512;DHT22;10414;52.074;5.126;2022-07-22T15:10:40;24.90;78.60
20512;DHT22;10414;52.074;5.126;2022-07-22T15:13:09;24.40;78.20
20512;DHT22;10414;52.074;5.126;2022-07-22T15:15:36;24.10;79.30
20512;DHT22;10414;52.074;5.126;2022-07-22T15:18:03;24.20;80.50
20512;DHT22;10414;52.074;5.126;2022-07-22T15:20:30;23.90;81.40
20512;DHT22;10414;52.074;5.126;2022-07-22T15:22:57;23.80;82.40
20512;DHT22;10414;52.074;5.126;2022-07-22T15:25:24;24.40;80.00
20512;DHT22;10414;52.074;5.126;2022-07-22T15:27:51;24.80;78.60
20512;DHT22;10414;52.074;5.126;2022-07-22T15:30:20;24.10;79.80
20512;DHT22;10414;52.074;5.126;2022-07-22T15:32:47;24.40;81.10
20512;DHT22;10414;52.074;5.126;2022-07-22T15:35:14;23.70;80.60
20512;DHT22;10414;52.074;5.126;2022-07-22T15:37:41;24.10;80.40